Time;durP1;ratioP1;P1;durP2;ratioP2;P2;SDS_P1;SDS_P2;PMS_P1;PMS_P2;Temp;Humidity;BMP_temperature;BMP_pressure;BME280_temperature;BME280_humidity;BME280_pressure;Samples;Min_cycle;Max_cycle;Signal;HPM_P1;HPM_P2
2021/06/25 00:02:16;;;;;;;19.60;4.35;;;589.40;2329.60;;;;;;5071773;28;20027;-74
2021/06/25 00:04:41;;;;;;;15.65;3.72;;;589.50;2304.00;;;;;;5072670;28;20398;-72
2021/06/25 00:07:07;;;;;;;13.85;3.80;;;589.50;2329.60;;;;;;5075921;28;20028;-77
2021/06/25 00:09:33;;;;;;;9.98;3.00;;;589.20;2355.20;;;;;;5075549;28;20059;-74
2021/06/25 00:11:59;;;;;;;16.20;3.58;;;589.20;2355.20;;;;;;5075691;28;20021;-72
2021/06/25 00:14:25;;;;;;;15.60;3.60;;;589.00;2380.80;;;;;;5075185;28;20099;-76
2021/06/25 00:16:51;;;;;;;16.33;4.10;;;589.00;2380.80;;;;;;5074423;28;20024;-73
2021/06/25 00:19:18;;;;;;;11.85;3.20;;;589.00;2380.80;;;;;;5073248;28;20024;-73
2021/06/25 00:21:44;;;;;;;12.60;3.50;;;589.00;2380.80;;;;;;5074432;28;20078;-72
2021/06/25 00:24:10;;;;;;;14.45;3.45;;;589.10;2380.80;;;;;;5074109;28;20056;-78
2021/06/25 00:26:35;;;;;;;12.25;3.60;;;589.20;2380.80;;;;;;5065544;28;20033;-72
2021/06/25 00:29:01;;;;;;;17.05;3.90;;;589.20;2355.20;;;;;;5074530;28;20090;-80
2021/06/25 00:31:27;;;;;;;15.07;4.10;;;589.20;2380.80;;;;;;5074105;28;20081;-73
2021/06/25 00:33:53;;;;;;;11.23;3.50;;;589.20;2355.20;;;;;;5074181;28;20082;-76
2021/06/25 00:36:18;;;;;;;12.20;4.25;;;589.20;2355.20;;;;;;5074646;28;20032;-80
2021/06/25 00:38:44;;;;;;;13.90;4.18;;;589.20;2380.80;;;;;;5074733;28;20040;-73
2021/06/25 00:41:10;;;;;;;14.02;3.92;;;589.10;2355.20;;;;;;5074321;28;20021;-81
2021/06/25 00:43:39;;;;;;;17.10;3.75;;;589.10;2380.80;;;;;;5056686;28;20029;-83
2021/06/25 00:46:05;;;;;;;19.98;4.53;;;589.10;2380.80;;;;;;5074718;28;20027;-80
2021/06/25 00:48:31;;;;;;;14.93;4.30;;;589.00;2380.80;;;;;;5074179;28;20094;-78
2021/06/25 00:50:57;;;;;;;15.98;3.92;;;588.90;2380.80;;;;;;5074656;28;20063;-76
2021/06/25 00:53:23;;;;;;;15.23;3.80;;;589.00;2380.80;;;;;;5074560;28;20016;-73
2021/06/25 00:55:48;;;;;;;14.32;4.18;;;589.00;2380.80;;;;;;5074679;28;20031;-77
2021/06/25 00:58:19;;;;;;;14.23;3.95;;;588.90;2406.40;;;;;;5074216;28;20021;-72
2021/06/25 01:00:45;;;;;;;;;;;588.90;2406.40;;;;;;5075277;28;20035;-76
2021/06/25 01:03:12;;;;;;;16.45;3.95;;;588.80;2406.40;;;;;;5074923;28;19951;-74
2021/06/25 01:05:38;;;;;;;12.07;3.55;;;588.80;2406.40;;;;;;5074767;28;20031;-73
2021/06/25 01:08:06;;;;;;;14.23;3.05;;;588.80;2355.20;;;;;;5074791;28;20099;-83
2021/06/25 01:10:35;;;;;;;11.52;3.55;;;588.80;2355.20;;;;;;5074680;28;20039;-77
2021/06/25 01:13:01;;;;;;;10.25;2.53;;;588.80;2329.60;;;;;;5074676;28;20023;-81
2021/06/25 01:15:26;;;;;;;13.10;2.80;;;588.80;2304.00;;;;;;5074340;28;20033;-82
2021/06/25 01:17:52;;;;;;;9.88;2.80;;;588.80;2304.00;;;;;;5074569;28;20066;-82
2021/06/25 01:20:27;;;;;;;12.13;2.88;;;564.10;2329.60;;;;;;5074410;28;20078;-76
2021/06/25 01:22:54;;;;;;;9.75;2.78;;;564.10;2304.00;;;;;;5074675;28;20531;-74
2021/06/25 01:25:33;;;;;;;10.02;3.00;;;564.10;2329.60;;;;;;5074136;28;20044;-77
2021/06/25 01:28:08;;;;;;;10.83;3.00;;;564.10;2329.60;;;;;;5074315;28;20047;-77
2021/06/25 01:30:38;;;;;;;12.90;2.42;;;564.10;2329.60;;;;;;5074087;28;20433;-76
2021/06/25 01:33:06;;;;;;;9.57;3.00;;;564.00;2329.60;;;;;;5074300;28;20054;-72
2021/06/25 01:35:33;;;;;;;14.30;2.90;;;564.00;2355.20;;;;;;5074392;28;20033;-71
2021/06/25 01:37:59;;;;;;;11.65;3.30;;;563.80;2406.40;;;;;;5074117;28;20025;-73
2021/06/25 01:40:25;;;;;;;15.00;3.63;;;563.80;2432.00;;;;;;5074063;28;20069;-77
2021/06/25 01:42:51;;;;;;;13.30;3.40;;;563.60;2432.00;;;;;;5074200;28;20114;-79
2021/06/25 01:45:22;;;;;;;10.35;3.40;;;563.40;2432.00;;;;;;5055950;28;20035;-80
2021/06/25 01:47:50;;;;;;;11.95;3.20;;;563.30;2432.00;;;;;;5074005;28;20043;-72
2021/06/25 01:50:22;;;;;;;13.02;3.60;;;563.20;2432.00;;;;;;5073822;28;20423;-78
2021/06/25 01:52:55;;;;;;;12.45;3.25;;;563.20;2432.00;;;;;;5073854;28;20024;-81
2021/06/25 01:55:21;;;;;;;12.65;3.30;;;538.40;2406.40;;;;;;5055860;28;20017;-81
2021/06/25 01:57:47;;;;;;;13.02;3.53;;;538.40;2406.40;;;;;;5073761;28;20036;-82
2021/06/25 02:00:14;;;;;;;14.55;3.53;;;538.30;2406.40;;;;;;5073787;28;20417;-79
2021/06/25 02:02:40;;;;;;;13.40;3.40;;;537.90;2406.40;;;;;;5074094;28;20121;-77
2021/06/25 02:05:09;;;;;;;11.38;3.33;;;537.90;2406.40;;;;;;5071986;28;20035;-72
2021/06/25 02:07:35;;;;;;;9.32;3.30;;;537.70;2406.40;;;;;;5073815;28;20090;-72
2021/06/25 02:10:02;;;;;;;12.98;3.40;;;512.90;2380.80;;;;;;5073538;28;20372;-72
2021/06/25 02:12:28;;;;;;;10.63;3.17;;;512.90;2380.80;;;;;;5073368;28;20107;-72
2021/06/25 02:14:53;;;;;;;10.93;3.63;;;512.70;2380.80;;;;;;5073637;28;20594;-74
2021/06/25 02:17:20;;;;;;;10.75;3.20;;;512.40;2380.80;;;;;;5073632;28;20030;-72
2021/06/25 02:19:46;;;;;;;13.65;3.00;;;512.50;2380.80;;;;;;5073763;28;20033;-72
2021/06/25 02:22:13;;;;;;;14.27;3.33;;;512.50;2380.80;;;;;;5073028;28;20439;-71
2021/06/25 02:24:39;;;;;;;11.25;3.35;;;512.40;2380.80;;;;;;5065338;28;20072;-73
2021/06/25 02:27:06;;;;;;;12.48;3.28;;;512.40;2380.80;;;;;;5068153;28;20025;-74
2021/06/25 02:29:33;;;;;;;11.85;3.97;;;512.30;2380.80;;;;;;5073208;28;20067;-73
2021/06/25 02:31:59;;;;;;;17.55;3.50;;;512.10;2380.80;;;;;;5073282;28;20470;-74
2021/06/25 02:34:24;;;;;;;14.68;3.65;;;512.10;2380.80;;;;;;5073086;28;20021;-74
2021/06/25 02:36:50;;;;;;;11.40;3.05;;;512.00;2380.80;;;;;;5073053;28;20024;-73
2021/06/25 02:39:16;;;;;;;16.80;3.58;;;487.30;2380.80;;;;;;5072911;28;20024;-74
2021/06/25 02:41:43;;;;;;;11.52;3.35;;;512.00;2380.80;;;;;;5055174;28;20367;-73
2021/06/25 02:44:09;;;;;;;13.20;3.65;;;512.10;2380.80;;;;;;5072721;28;20024;-72
2021/06/25 02:46:35;;;;;;;9.75;3.10;;;512.30;2380.80;;;;;;5072931;28;20081;-73
2021/06/25 02:49:01;;;;;;;21.50;4.20;;;512.40;2380.80;;;;;;5072943;28;20475;-74
2021/06/25 02:51:27;;;;;;;11.60;3.30;;;512.50;2380.80;;;;;;5072576;28;20027;-73
2021/06/25 02:53:52;;;;;;;11.88;3.72;;;512.60;2380.80;;;;;;5072901;28;20135;-74
2021/06/25 02:56:19;;;;;;;12.93;3.50;;;512.60;2380.80;;;;;;5072586;28;20088;-72
2021/06/25 02:58:45;;;;;;;12.75;3.45;;;512.70;2380.80;;;;;;5072855;28;20100;-72
2021/06/25 03:01:10;;;;;;;12.73;3.30;;;512.80;2380.80;;;;;;5072511;28;20021;-72
2021/06/25 03:03:36;;;;;;;11.68;3.45;;;512.80;2380.80;;;;;;5072807;28;20108;-73
2021/06/25 03:06:02;;;;;;;10.55;3.85;;;512.80;2380.80;;;;;;5072753;28;20020;-73
2021/06/25 03:08:28;;;;;;;10.57;2.90;;;512.80;2380.80;;;;;;5072457;28;20028;-73
2021/06/25 03:10:54;;;;;;;9.38;3.30;;;512.90;2380.80;;;;;;5072514;28;20044;-73
2021/06/25 03:13:20;;;;;;;13.25;3.15;;;537.60;2406.40;;;;;;5072424;28;20021;-72
2021/06/25 03:15:47;;;;;;;13.15;3.00;;;537.60;2406.40;;;;;;5072549;28;20483;-72
2021/06/25 03:18:14;;;;;;;16.02;3.35;;;537.70;2406.40;;;;;;5072445;28;20399;-73
2021/06/25 03:20:41;;;;;;;39.88;17.52;;;537.80;2406.40;;;;;;5072513;28;20079;-72
2021/06/25 03:23:07;;;;;;;27.50;10.80;;;537.90;2406.40;;;;;;5072302;28;20020;-71
2021/06/25 03:25:34;;;;;;;22.98;8.80;;;537.90;2406.40;;;;;;5062084;28;20040;-74
2021/06/25 03:28:00;;;;;;;23.92;13.70;;;537.90;2406.40;;;;;;5072417;28;20021;-73
2021/06/25 03:30:26;;;;;;;14.80;5.30;;;538.00;2406.40;;;;;;5072120;28;20422;-73
2021/06/25 03:32:52;;;;;;;15.18;4.30;;;538.00;2406.40;;;;;;5072390;28;20036;-73
2021/06/25 03:35:18;;;;;;;11.73;3.65;;;538.10;2406.40;;;;;;5072287;28;20021;-73
2021/06/25 03:37:44;;;;;;;9.85;3.17;;;538.20;2406.40;;;;;;5072190;28;20029;-73
2021/06/25 03:40:12;;;;;;;13.15;3.85;;;538.10;2406.40;;;;;;5071437;28;20037;-73
2021/06/25 03:42:38;;;;;;;16.15;4.28;;;538.00;2406.40;;;;;;5072131;28;20482;-72
2021/06/25 03:45:06;;;;;;;11.00;3.38;;;537.80;2406.40;;;;;;5072263;28;20029;-72
2021/06/25 03:47:32;;;;;;;10.88;3.40;;;537.70;2406.40;;;;;;5071872;28;20032;-72
2021/06/25 03:49:58;;;;;;;18.98;4.10;;;537.90;2406.40;;;;;;5072199;28;20110;-73
2021/06/25 03:52:23;;;;;;;12.57;3.97;;;537.90;2406.40;;;;;;5071961;28;20024;-73
2021/06/25 03:54:49;;;;;;;13.32;3.53;;;538.00;2406.40;;;;;;5072145;28;20095;-74
2021/06/25 03:57:15;;;;;;;12.45;3.60;;;538.10;2406.40;;;;;;5071940;28;20028;-72
2021/06/25 03:59:41;;;;;;;12.23;4.00;;;538.20;2406.40;;;;;;5072165;28;20528;-73
2021/06/25 04:02:09;;;;;;;12.77;4.45;;;538.40;2406.40;;;;;;5072328;28;20024;-72
2021/06/25 04:04:36;;;;;;;11.60;3.97;;;538.50;2406.40;;;;;;5071790;28;20024;-72
2021/06/25 04:07:02;;;;;;;16.25;3.85;;;538.50;2406.40;;;;;;5053091;28;20029;-73
2021/06/25 04:09:28;;;;;;;11.50;3.15;;;563.30;2432.00;;;;;;5071681;28;20099;-73
2021/06/25 04:11:54;;;;;;;14.40;3.70;;;563.60;2432.00;;;;;;5072189;28;20443;-71
2021/06/25 04:14:20;;;;;;;11.48;5.15;;;563.70;2432.00;;;;;;5071902;28;20021;-72
2021/06/25 04:16:46;;;;;;;13.43;4.20;;;563.70;2432.00;;;;;;5072001;28;20033;-72
2021/06/25 04:19:12;;;;;;;24.25;8.95;;;563.80;2432.00;;;;;;5072156;28;20466;-72
2021/06/25 04:21:37;;;;;;;16.98;6.18;;;564.00;2432.00;;;;;;5072080;28;20107;-73
2021/06/25 04:24:03;;;;;;;12.65;4.60;;;564.10;2432.00;;;;;;5068753;28;20049;-73
2021/06/25 04:26:29;;;;;;;13.90;4.00;;;588.90;2432.00;;;;;;5064813;28;20021;-71
2021/06/25 04:28:55;;;;;;;13.45;3.47;;;589.10;2432.00;;;;;;5071650;28;20027;-73
2021/06/25 04:31:21;;;;;;;12.02;3.33;;;589.30;2432.00;;;;;;5071821;28;20012;-71
2021/06/25 04:33:46;;;;;;;14.18;3.90;;;589.40;2432.00;;;;;;5071635;28;20743;-72
2021/06/25 04:36:12;;;;;;;13.80;3.80;;;589.50;2432.00;;;;;;5071875;28;20024;-74
2021/06/25 04:38:38;;;;;;;11.23;3.38;;;589.30;2432.00;;;;;;5071632;28;20479;-73
2021/06/25 04:41:04;;;;;;;15.02;3.28;;;589.20;2432.00;;;;;;5071835;28;20074;-73
2021/06/25 04:43:30;;;;;;;11.98;3.20;;;589.30;2432.00;;;;;;5072029;28;20086;-73
2021/06/25 04:45:59;;;;;;;13.25;3.65;;;589.50;2432.00;;;;;;5071818;28;20024;-73
2021/06/25 04:48:26;;;;;;;11.65;3.15;;;589.40;2432.00;;;;;;5071520;28;20089;-73
2021/06/25 04:50:52;;;;;;;14.70;3.78;;;589.60;2432.00;;;;;;5072594;28;20035;-73
2021/06/25 04:53:17;;;;;;;12.85;3.05;;;589.70;2432.00;;;;;;5075245;28;20009;-73
2021/06/25 04:55:44;;;;;;;13.43;3.42;;;614.40;2432.00;;;;;;5074903;28;20483;-72
2021/06/25 04:58:12;;;;;;;16.35;3.83;;;614.40;2432.00;;;;;;5075262;28;20127;-73
2021/06/25 05:00:39;;;;;;;13.02;3.72;;;614.50;2432.00;;;;;;5074978;28;20391;-74
2021/06/25 05:03:06;;;;;;;14.38;4.07;;;614.70;2432.00;;;;;;5074956;28;20074;-73
2021/06/25 05:05:37;;;;;;;12.35;4.30;;;614.80;2432.00;;;;;;5075063;28;20035;-74
2021/06/25 05:08:04;;;;;;;13.80;4.25;;;615.00;2432.00;;;;;;5074712;28;20025;-72
2021/06/25 05:10:30;;;;;;;13.55;4.50;;;615.20;2432.00;;;;;;5074588;28;20471;-72
2021/06/25 05:12:56;;;;;;;15.80;5.03;;;640.00;2432.00;;;;;;5074702;28;20420;-73
2021/06/25 05:15:22;;;;;;;15.32;4.97;;;640.20;2432.00;;;;;;5074702;28;20122;-72
2021/06/25 05:17:49;;;;;;;17.10;4.68;;;640.20;2432.00;;;;;;5074678;28;20031;-73
2021/06/25 05:20:15;;;;;;;17.00;4.57;;;640.20;2432.00;;;;;;5074854;28;20027;-72
2021/06/25 05:22:41;;;;;;;17.05;4.00;;;640.50;2432.00;;;;;;5074847;28;20036;-74
2021/06/25 05:25:08;;;;;;;13.65;4.40;;;640.60;2432.00;;;;;;5063979;28;20049;-72
2021/06/25 05:27:34;;;;;;;14.57;4.38;;;640.90;2432.00;;;;;;5074612;28;20032;-73
2021/06/25 05:30:00;;;;;;;13.80;4.03;;;665.60;2432.00;;;;;;5074370;28;20025;-73
2021/06/25 05:32:25;;;;;;;15.02;3.95;;;665.60;2432.00;;;;;;5074252;28;20025;-73
2021/06/25 05:34:51;;;;;;;16.77;4.15;;;665.60;2432.00;;;;;;5074348;28;20028;-74
2021/06/25 05:37:17;;;;;;;16.25;3.85;;;665.90;2432.00;;;;;;5074450;28;20040;-72
2021/06/25 05:39:43;;;;;;;13.70;4.15;;;666.00;2432.00;;;;;;5074333;28;20024;-72
2021/06/25 05:42:09;;;;;;;14.48;4.00;;;665.90;2432.00;;;;;;5074285;28;20021;-72
2021/06/25 05:44:35;;;;;;;18.67;5.50;;;665.90;2432.00;;;;;;5074348;28;20108;-73
2021/06/25 05:47:03;;;;;;;18.02;4.93;;;666.20;2432.00;;;;;;5074220;28;20028;-73
2021/06/25 05:49:29;;;;;;;19.92;4.55;;;666.50;2432.00;;;;;;5073942;28;20028;-72
2021/06/25 05:51:54;;;;;;;18.67;4.65;;;666.50;2432.00;;;;;;5074113;28;20497;-72
2021/06/25 05:54:20;;;;;;;20.15;4.97;;;691.20;2432.00;;;;;;5073904;28;20020;-72
2021/06/25 05:56:46;;;;;;;18.75;5.07;;;691.20;2432.00;;;;;;5073708;28;20099;-75
2021/06/25 05:59:12;;;;;;;16.85;4.85;;;691.40;2432.00;;;;;;5073778;28;20029;-72
2021/06/25 06:01:38;;;;;;;17.58;4.65;;;691.50;2432.00;;;;;;5073588;28;20033;-73
2021/06/25 06:04:04;;;;;;;17.27;4.50;;;691.80;2432.00;;;;;;5073047;28;20037;-73
2021/06/25 06:06:29;;;;;;;17.35;4.30;;;691.80;2432.00;;;;;;5073751;28;20108;-72
2021/06/25 06:08:55;;;;;;;16.98;4.75;;;691.90;2432.00;;;;;;5073689;28;20158;-72
2021/06/25 06:11:21;;;;;;;13.70;4.70;;;692.00;2432.00;;;;;;5073208;28;20493;-72
2021/06/25 06:13:47;;;;;;;16.63;4.32;;;716.90;2432.00;;;;;;5073461;28;20428;-73
2021/06/25 06:16:13;;;;;;;20.08;4.95;;;716.90;2432.00;;;;;;5073575;28;20031;-74
2021/06/25 06:18:48;;;;;;;15.30;4.82;;;716.90;2432.00;;;;;;5073428;28;20028;-74
2021/06/25 06:21:16;;;;;;;17.65;5.25;;;716.80;2432.00;;;;;;5073402;28;20028;-73
2021/06/25 06:32:17;;;;;;;18.50;4.57;;;717.70;2432.00;;;;;;5073316;28;20031;-73
2021/06/25 06:34:45;;;;;;;16.38;5.30;;;742.60;2432.00;;;;;;5073034;28;20051;-74
2021/06/25 06:37:16;;;;;;;15.63;4.40;;;742.60;2432.00;;;;;;5072716;28;20074;-74
2021/06/25 06:39:43;;;;;;;18.58;5.07;;;742.90;2432.00;;;;;;5073020;28;20028;-74
2021/06/25 06:42:09;;;;;;;21.27;5.07;;;743.00;2432.00;;;;;;5072814;28;20096;-74
2021/06/25 06:44:35;;;;;;;18.88;4.95;;;743.30;2432.00;;;;;;5072884;28;20032;-74
2021/06/25 06:47:00;;;;;;;18.50;4.82;;;768.00;2432.00;;;;;;5072414;28;20108;-75
2021/06/25 06:49:26;;;;;;;14.75;4.70;;;768.10;2432.00;;;;;;5072514;28;20474;-75
2021/06/25 06:51:52;;;;;;;15.18;4.50;;;768.00;2432.00;;;;;;5073050;28;20024;-74
2021/06/25 06:54:18;;;;;;;17.30;4.55;;;743.30;2432.00;;;;;;5072581;28;20025;-75
2021/06/25 06:56:43;;;;;;;16.38;4.75;;;768.10;2432.00;;;;;;5072585;28;20029;-74
2021/06/25 06:59:09;;;;;;;18.15;4.90;;;768.40;2432.00;;;;;;5072540;28;20013;-75
2021/06/25 07:01:35;;;;;;;21.00;5.43;;;768.30;2432.00;;;;;;5072702;28;20032;-74
2021/06/25 07:04:02;;;;;;;17.38;5.40;;;768.50;2432.00;;;;;;5072420;28;20024;-73
2021/06/25 07:06:28;;;;;;;22.35;5.30;;;768.40;2432.00;;;;;;5062133;28;20505;-73
2021/06/25 07:08:54;;;;;;;18.45;4.93;;;768.30;2432.00;;;;;;5072729;28;20086;-73
2021/06/25 07:11:20;;;;;;;18.73;5.45;;;768.20;2432.00;;;;;;5072296;28;20009;-73
2021/06/25 07:13:45;;;;;;;24.23;5.63;;;768.60;2432.00;;;;;;5072313;28;20532;-75
2021/06/25 07:16:12;;;;;;;18.30;5.03;;;;;;;;;;5072542;28;20024;-74
2021/06/25 07:18:38;;;;;;;21.08;6.15;;;768.90;2432.00;;;;;;5072552;28;20032;-75
2021/06/25 07:21:04;;;;;;;20.73;5.85;;;;;;;;;;5072544;28;20479;-74
2021/06/25 07:23:30;;;;;;;15.90;5.55;;;794.00;2432.00;;;;;;5072133;28;20053;-73
2021/06/25 07:25:56;;;;;;;18.33;5.35;;;794.00;2432.00;;;;;;5062247;28;20403;-73
2021/06/25 07:28:21;;;;;;;21.23;6.32;;;793.70;2432.00;;;;;;5072131;28;20021;-74
2021/06/25 07:30:47;;;;;;;17.48;5.93;;;793.90;2432.00;;;;;;5072382;28;20029;-73
2021/06/25 07:33:13;;;;;;;17.40;5.40;;;794.00;2432.00;;;;;;5072294;28;20097;-74
2021/06/25 07:35:38;;;;;;;19.45;5.13;;;794.40;2432.00;;;;;;5072135;28;20018;-74
2021/06/25 07:38:04;;;;;;;23.20;5.43;;;794.30;2432.00;;;;;;5072340;28;20421;-73
2021/06/25 07:40:30;;;;;;;17.55;6.03;;;794.50;2432.00;;;;;;5071413;28;20035;-74
2021/06/25 07:42:55;;;;;;;18.75;5.18;;;819.50;2432.00;;;;;;5071521;28;20501;-74
2021/06/25 07:45:21;;;;;;;19.15;5.43;;;819.60;2432.00;;;;;;5071371;28;20032;-74
2021/06/25 07:47:47;;;;;;;21.58;5.55;;;819.60;2432.00;;;;;;5071798;28;20391;-74
2021/06/25 07:50:16;;;;;;;15.43;5.07;;;819.60;2432.00;;;;;;5072126;28;20040;-74
2021/06/25 07:52:42;;;;;;;14.20;5.15;;;819.80;2432.00;;;;;;5072200;28;20021;-75
2021/06/25 07:55:10;;;;;;;17.80;5.55;;;;;;;;;;5072070;28;20095;-75
2021/06/25 07:57:36;;;;;;;16.42;4.95;;;;;;;;;;5071934;28;20012;-75
2021/06/25 08:00:03;;;;;;;17.83;5.20;;;;;;;;;;5071566;28;20025;-76
2021/06/25 08:02:28;;;;;;;19.38;5.72;;;820.00;2432.00;;;;;;5071499;28;20036;-75
2021/06/25 08:04:54;;;;;;;16.83;5.18;;;845.20;2380.80;;;;;;5071660;28;20134;-75
2021/06/25 08:07:20;;;;;;;18.42;4.85;;;845.10;2380.80;;;;;;5071620;28;20035;-75
2021/06/25 08:09:45;;;;;;;20.35;5.38;;;820.10;2304.00;;;;;;5071465;28;20471;-76
2021/06/25 08:12:13;;;;;;;15.48;4.45;;;845.10;2304.00;;;;;;5071503;28;20016;-75
2021/06/25 08:14:40;;;;;;;19.27;4.97;;;845.20;2252.80;;;;;;5070064;28;20458;-75
2021/06/25 08:17:06;;;;;;;15.88;4.82;;;844.90;2252.80;;;;;;5071365;28;20017;-74
2021/06/25 08:19:33;;;;;;;19.17;4.45;;;844.90;2278.40;;;;;;5071521;28;20031;-75
2021/06/25 08:21:59;;;;;;;21.27;4.65;;;845.20;2201.60;;;;;;5071321;28;20032;-75
2021/06/25 08:24:24;;;;;;;16.63;4.53;;;845.00;2227.20;;;;;;5070491;28;20056;-74
2021/06/25 08:26:51;;;;;;;19.75;5.72;;;845.40;2227.20;;;;;;5073628;28;20116;-75
2021/06/25 08:29:18;;;;;;;19.30;4.70;;;;;;;;;;5074603;28;20501;-76
2021/06/25 08:31:44;;;;;;;18.88;4.55;;;;;;;;;;5075100;28;20025;-74
2021/06/25 08:34:11;;;;;;;17.15;4.00;;;;;;;;;;5075556;28;20096;-74
2021/06/25 08:36:38;;;;;;;16.85;4.40;;;;;;;;;;5074762;28;20028;-75
2021/06/25 08:39:04;;;;;;;18.73;4.03;;;870.40;2201.60;;;;;;5074884;28;20196;-75
2021/06/25 08:41:30;;;;;;;17.38;4.60;;;870.40;2048.00;;;;;;5074520;28;20025;-73
2021/06/25 08:43:56;;;;;;;19.38;4.53;;;845.70;2073.60;;;;;;5073917;28;20487;-76
2021/06/25 08:46:22;;;;;;;16.10;4.40;;;;;;;;;;5073858;28;20024;-76
2021/06/25 08:48:49;;;;;;;21.23;4.68;;;;;;;;;;5074690;28;20479;-75
2021/06/25 08:51:15;;;;;;;21.20;4.18;;;845.60;2048.00;;;;;;5074339;28;20071;-75
2021/06/25 08:53:40;;;;;;;20.60;4.40;;;871.30;1996.80;;;;;;5074677;28;20513;-74
2021/06/25 08:56:06;;;;;;;25.67;5.32;;;896.20;1945.60;;;;;;5074065;28;20020;-74
2021/06/25 08:58:32;;;;;;;24.92;5.25;;;896.00;1894.40;;;;;;5073834;28;20020;-75
2021/06/25 09:00:59;;;;;;;16.20;4.75;;;896.10;1894.40;;;;;;5073899;28;20091;-74
2021/06/25 09:03:29;;;;;;;22.05;5.28;;;871.30;1894.40;;;;;;5074495;28;20033;-74
2021/06/25 09:06:26;;;;;;;20.70;5.47;;;896.40;1920.00;;;;;;5074733;28;20024;-74
2021/06/25 09:08:51;;;;;;;20.98;6.25;;;896.30;1894.40;;;;;;5056275;28;20151;-74
2021/06/25 09:11:25;;;;;;;19.67;6.20;;;896.40;1920.00;;;;;;5073613;28;20099;-76
2021/06/25 09:14:01;;;;;;;20.42;5.30;;;896.70;1894.40;;;;;;5073178;28;20474;-77
2021/06/25 09:16:31;;;;;;;23.52;4.90;;;896.40;1843.20;;;;;;5073290;28;20016;-76
2021/06/25 09:19:04;;;;;;;18.00;5.43;;;896.40;1894.40;;;;;;5065197;28;20115;-78
2021/06/25 09:21:39;;;;;;;27.98;5.40;;;896.70;1868.80;;;;;;5069435;28;20024;-77
2021/06/25 09:24:23;;;;;;;17.75;5.40;;;896.90;1843.20;;;;;;5071729;28;20051;-77
2021/06/25 09:26:50;;;;;;;20.90;5.15;;;922.00;1868.80;;;;;;5073218;28;20032;-79
2021/06/25 09:29:20;;;;;;;19.73;5.05;;;921.80;1894.40;;;;;;5073589;28;20024;-77
2021/06/25 09:31:57;;;;;;;19.13;4.93;;;896.90;1843.20;;;;;;5071244;28;20070;-74
2021/06/25 09:34:42;;;;;;;21.35;4.70;;;921.80;1868.80;;;;;;5071516;28;20383;-75
2021/06/25 09:37:12;;;;;;;18.52;4.30;;;922.20;1868.80;;;;;;5069943;28;20029;-74
2021/06/25 09:39:42;;;;;;;21.40;5.32;;;922.40;1843.20;;;;;;5072032;28;20027;-78
2021/06/25 09:42:17;;;;;;;;;;;922.00;1817.60;;;;;;5054954;28;20081;-74
2021/06/25 09:45:06;;;;;;;24.80;5.05;;;922.50;1843.20;;;;;;5069470;28;20034;-80
2021/06/25 09:47:34;;;;;;;15.95;4.78;;;922.20;1792.00;;;;;;5063243;28;20107;-78
2021/06/25 09:50:27;;;;;;;20.02;5.38;;;922.50;1817.60;;;;;;5147230;22;20055;-77
2021/06/25 09:53:06;;;;;;;21.15;4.85;;;947.30;1766.40;;;;;;5094400;28;20379;-78
2021/06/25 09:55:56;;;;;;;19.95;5.00;;;947.60;1792.00;;;;;;5076202;28;20017;-76
2021/06/25 09:58:42;;;;;;;18.45;4.28;;;948.00;1792.00;;;;;;5092242;28;20028;-74
2021/06/25 10:01:24;;;;;;;22.30;5.40;;;948.10;1740.80;;;;;;5093814;28;20035;-71
2021/06/25 10:03:57;;;;;;;23.95;5.20;;;973.00;1766.40;;;;;;5094452;28;20069;-72
2021/06/25 10:06:28;;;;;;;23.35;5.53;;;972.90;1766.40;;;;;;5091787;28;20525;-73
2021/06/25 10:08:55;;;;;;;18.58;4.60;;;973.10;1740.80;;;;;;5094360;28;20040;-73
2021/06/25 10:11:23;;;;;;;21.55;5.07;;;973.20;1664.00;;;;;;5094079;28;20031;-73
2021/06/25 10:13:51;;;;;;;18.83;4.82;;;973.20;1612.80;;;;;;5086192;28;20024;-73
2021/06/25 10:16:17;;;;;;;20.83;4.55;;;973.20;1612.80;;;;;;5086001;28;20016;-72
2021/06/25 10:18:49;;;;;;;19.73;4.68;;;973.00;1664.00;;;;;;5093566;28;20020;-73
2021/06/25 10:21:17;;;;;;;22.85;4.82;;;973.00;1664.00;;;;;;5093872;28;20094;-72
2021/06/25 10:23:48;;;;;;;21.90;5.05;;;948.10;1664.00;;;;;;5092909;28;20028;-72
2021/06/25 10:26:16;;;;;;;20.85;5.28;;;973.00;1664.00;;;;;;5072446;28;20545;-73
2021/06/25 10:28:43;;;;;;;18.70;4.35;;;973.00;1612.80;;;;;;5094199;28;20114;-73
2021/06/25 10:31:10;;;;;;;24.13;5.28;;;973.10;1561.60;;;;;;5092705;28;20028;-73
2021/06/25 10:33:37;;;;;;;17.48;4.30;;;973.10;1587.20;;;;;;5094321;28;20074;-73
2021/06/25 10:36:09;;;;;;;22.90;4.95;;;973.30;1612.80;;;;;;5091095;28;20099;-73
2021/06/25 10:38:38;;;;;;;24.45;5.43;;;973.60;1561.60;;;;;;5093909;28;20055;-72
2021/06/25 10:41:06;;;;;;;20.38;4.50;;;973.70;1536.00;;;;;;5090131;28;20470;-72
2021/06/25 10:43:51;;;;;;;20.05;4.40;;;998.60;1587.20;;;;;;5093205;28;20032;-73
2021/06/25 10:46:34;;;;;;;22.25;4.93;;;998.60;1536.00;;;;;;5092968;28;20043;-72
2021/06/25 10:49:22;;;;;;;19.10;3.83;;;998.80;1536.00;;;;;;5092308;28;20162;-74
2021/06/25 10:51:48;;;;;;;21.65;4.95;;;998.90;1459.20;;;;;;5093102;28;20028;-72
2021/06/25 10:54:19;;;;;;;18.50;4.40;;;999.00;1484.80;;;;;;5093370;28;20073;-73
2021/06/25 10:56:47;;;;;;;21.10;4.50;;;999.00;1459.20;;;;;;5092994;28;20474;-73
2021/06/25 10:59:30;;;;;;;21.30;4.63;;;998.60;1536.00;;;;;;5093270;28;20024;-73
2021/06/25 11:01:59;;;;;;;23.75;4.22;;;998.50;1484.80;;;;;;5093258;28;20386;-73
2021/06/25 11:04:37;;;;;;;19.98;4.35;;;973.60;1484.80;;;;;;5092436;28;20394;-72
2021/06/25 11:07:06;;;;;;;26.35;4.72;;;998.50;1536.00;;;;;;5093246;28;20023;-73
2021/06/25 11:09:53;;;;;;;21.75;4.85;;;973.70;1484.80;;;;;;5092678;28;20043;-73
2021/06/25 11:12:20;;;;;;;19.42;4.80;;;973.70;1484.80;;;;;;5093057;28;20501;-72
2021/06/25 11:14:47;;;;;;;22.30;4.68;;;973.20;1484.80;;;;;;5087517;28;20029;-72
2021/06/25 11:17:55;;;;;;;23.80;4.63;;;973.20;1536.00;;;;;;5091838;28;20179;-71
2021/06/25 11:20:29;;;;;;;20.92;4.68;;;973.70;1510.40;;;;;;5091972;28;20024;-77
2021/06/25 11:23:10;;;;;;;23.95;4.97;;;998.70;1484.80;;;;;;5091499;28;20028;-76
2021/06/25 11:25:41;;;;;;;20.13;4.20;;;998.80;1459.20;;;;;;5091469;28;20043;-79
2021/06/25 11:28:16;;;;;;;19.30;4.40;;;999.10;1433.60;;;;;;5085380;28;20026;-80
2021/06/25 11:30:54;;;;;;;21.25;4.47;;;1024.00;1408.00;;;;;;5072732;28;20037;-84
2021/06/25 11:33:47;;;;;;;18.33;4.07;;;999.00;1459.20;;;;;;5072905;28;20445;-81
2021/06/25 11:36:28;;;;;;;17.23;4.15;;;998.90;1433.60;;;;;;5076425;28;20023;-73
2021/06/25 11:39:00;;;;;;;18.60;4.55;;;998.90;1433.60;;;;;;5087822;28;20031;-80
2021/06/25 11:41:29;;;;;;;22.48;4.32;;;998.90;1433.60;;;;;;5092207;28;20032;-78
2021/06/25 11:43:57;;;;;;;18.30;4.47;;;999.10;1459.20;;;;;;5092020;28;20021;-81
2021/06/25 11:46:24;;;;;;;21.75;4.30;;;1024.10;1484.80;;;;;;5092711;28;20034;-79
2021/06/25 11:48:51;;;;;;;23.15;4.38;;;1024.30;1484.80;;;;;;5097221;28;20020;-79
2021/06/25 11:51:19;;;;;;;17.85;4.15;;;1024.40;1459.20;;;;;;5091639;28;20047;-81
2021/06/25 11:53:46;;;;;;;19.65;5.05;;;1024.60;1459.20;;;;;;5092232;28;20394;-78
2021/06/25 11:56:19;;;;;;;18.00;4.20;;;1024.60;1459.20;;;;;;5091879;28;20008;-78
2021/06/25 11:58:56;;;;;;;21.50;3.88;;;1024.50;1433.60;;;;;;5091481;28;20059;-79
2021/06/25 12:01:21;;;;;;;20.60;4.00;;;1024.50;1408.00;;;;;;5094031;28;20020;-79
2021/06/25 12:03:47;;;;;;;21.50;4.30;;;1024.50;1408.00;;;;;;5077398;28;20027;-78
2021/06/25 12:06:13;;;;;;;21.58;4.22;;;1024.20;1433.60;;;;;;5095977;28;20038;-80
2021/06/25 12:09:05;;;;;;;19.25;4.22;;;1024.10;1433.60;;;;;;5095983;28;20089;-78
2021/06/25 12:11:36;;;;;;;18.95;4.75;;;1024.30;1433.60;;;;;;5095960;28;20434;-78
2021/06/25 12:14:05;;;;;;;21.17;4.35;;;1024.40;1408.00;;;;;;5095737;28;20012;-73
2021/06/25 12:16:33;;;;;;;18.63;3.75;;;1024.90;1433.60;;;;;;5095475;28;20027;-75
2021/06/25 12:19:00;;;;;;;;;;;1049.60;1433.60;;;;;;5096531;28;20040;-76
2021/06/25 12:21:27;;;;;;;18.50;3.78;;;1049.70;1433.60;;;;;;5095811;28;20294;-73
2021/06/25 12:23:56;;;;;;;23.17;4.68;;;1024.90;1356.80;;;;;;5095885;28;20024;-78
2021/06/25 12:26:25;;;;;;;20.95;4.47;;;1024.70;1356.80;;;;;;5095601;28;20020;-75
2021/06/25 12:28:57;;;;;;;18.67;4.47;;;1024.60;1356.80;;;;;;5095216;28;20020;-75